createdAt,value
2023-04-28T00:00:59.689Z,11.42
2023-04-28T00:03:28.608Z,11.50
2023-04-28T00:05:57.855Z,11.42
2023-04-28T00:08:27.367Z,11.36
2023-04-28T00:10:57.880Z,11.37
2023-04-28T00:13:26.815Z,11.35
2023-04-28T00:15:57.979Z,11.42
2023-04-28T00:18:29.486Z,11.49
2023-04-28T00:20:58.325Z,11.35
2023-04-28T00:23:27.097Z,11.40
2023-04-28T00:25:57.912Z,11.20
2023-04-28T00:28:34.148Z,11.30
2023-04-28T00:31:03.465Z,11.35
2023-04-28T00:33:31.708Z,11.20
2023-04-28T00:36:02.863Z,11.30
2023-04-28T00:38:31.356Z,11.31
2023-04-28T00:41:01.180Z,11.37
2023-04-28T00:43:29.536Z,11.30
2023-04-28T00:45:58.584Z,11.30
2023-04-28T00:48:27.753Z,11.05
2023-04-28T00:50:55.923Z,11.19
2023-04-28T00:53:24.197Z,11.22
2023-04-28T00:55:56.837Z,11.09
2023-04-28T00:58:26.879Z,11.29
2023-04-28T01:00:55.305Z,11.38
2023-04-28T01:03:23.673Z,11.36
2023-04-28T01:05:52.197Z,11.33
2023-04-28T01:08:25.095Z,11.34
2023-04-28T01:10:53.607Z,11.14
2023-04-28T01:13:21.844Z,11.20
2023-04-28T01:15:51.961Z,11.29
2023-04-28T01:18:20.785Z,11.30
2023-04-28T01:20:48.975Z,11.18
2023-04-28T01:23:18.311Z,11.17
2023-04-28T01:25:48.017Z,11.29
2023-04-28T01:28:16.499Z,11.28
2023-04-28T01:30:44.619Z,11.26
2023-04-28T01:33:13.067Z,11.17
2023-04-28T01:35:41.438Z,11.23
2023-04-28T01:38:09.497Z,11.24
2023-04-28T01:40:37.883Z,11.28
2023-04-28T01:43:07.360Z,10.97
2023-04-28T01:45:35.571Z,10.99
2023-04-28T01:48:04.032Z,11.06
2023-04-28T01:50:32.469Z,10.96
2023-04-28T01:53:00.668Z,11.19
2023-04-28T01:55:28.876Z,11.15
2023-04-28T01:58:00.292Z,11.17
2023-04-28T02:00:30.043Z,11.15
2023-04-28T02:02:58.452Z,11.02
2023-04-28T02:05:27.385Z,11.17
2023-04-28T02:07:56.426Z,11.19
2023-04-28T02:10:24.827Z,11.09
2023-04-28T02:12:52.910Z,11.11
2023-04-28T02:15:21.177Z,11.01
2023-04-28T02:17:51.120Z,11.06
2023-04-28T02:20:19.514Z,11.05
2023-04-28T02:22:48.050Z,11.08
2023-04-28T02:25:16.247Z,11.18
2023-04-28T02:27:44.445Z,11.06
2023-04-28T02:30:13.757Z,11.10
2023-04-28T02:32:41.996Z,10.97
2023-04-28T02:35:11.605Z,11.05
2023-04-28T02:37:40.037Z,11.09
2023-04-28T02:40:09.623Z,11.01
2023-04-28T02:42:37.765Z,11.06
2023-04-28T02:45:07.465Z,11.09
2023-04-28T02:47:35.865Z,11.01
2023-04-28T02:50:04.527Z,11.03
2023-04-28T02:52:34.198Z,11.06
2023-04-28T02:55:03.846Z,11.04
2023-04-28T02:57:32.209Z,11.07
2023-04-28T03:00:00.706Z,11.07
2023-04-28T03:02:28.956Z,11.06
2023-04-28T03:04:57.368Z,11.03
2023-04-28T03:07:25.914Z,10.92
2023-04-28T03:09:55.767Z,10.91
2023-04-28T03:12:23.987Z,10.79
2023-04-28T03:14:52.423Z,10.79
2023-04-28T03:17:20.770Z,10.79
2023-04-28T03:19:49.214Z,10.71
2023-04-28T03:22:17.879Z,10.74
2023-04-28T03:24:46.124Z,10.65
2023-04-28T03:27:15.794Z,10.62
2023-04-28T03:29:44.268Z,10.62
2023-04-28T03:32:12.383Z,10.57
2023-04-28T03:34:40.715Z,10.54
2023-04-28T03:37:09.198Z,10.51
2023-04-28T03:39:37.620Z,10.46
2023-04-28T03:42:06.268Z,10.43
2023-04-28T03:44:36.401Z,10.38
2023-04-28T03:47:04.594Z,10.33
2023-04-28T03:49:32.727Z,10.28
2023-04-28T03:52:01.814Z,10.29
2023-04-28T03:54:29.988Z,10.20
2023-04-28T03:56:58.729Z,9.98
2023-04-28T03:59:28.454Z,10.07
2023-04-28T04:01:58.432Z,10.16
2023-04-28T04:04:27.288Z,10.04
2023-04-28T04:06:56.065Z,10.03
2023-04-28T04:09:24.287Z,10.12
2023-04-28T04:11:52.682Z,10.20
2023-04-28T04:14:21.233Z,10.35
2023-04-28T04:16:49.658Z,10.30
2023-04-28T04:19:19.572Z,10.24
2023-04-28T04:21:48.160Z,9.86
2023-04-28T04:24:16.701Z,9.86
2023-04-28T04:26:45.124Z,9.86
2023-04-28T04:29:13.709Z,9.90
2023-04-28T04:31:42.943Z,10.05
2023-04-28T04:34:18.508Z,9.77
2023-04-28T04:36:51.188Z,9.35
2023-04-28T04:39:19.332Z,9.61
2023-04-28T04:41:47.582Z,9.86
2023-04-28T04:44:16.095Z,10.08
2023-04-28T04:46:44.673Z,10.19
2023-04-28T04:49:12.949Z,10.06
2023-04-28T04:51:41.769Z,10.25
2023-04-28T04:54:11.453Z,10.22
2023-04-28T04:56:39.596Z,10.24
2023-04-28T04:59:08.056Z,10.34
2023-04-28T05:01:36.459Z,10.38
2023-04-28T05:04:04.835Z,10.36
2023-04-28T05:06:33.912Z,10.51
2023-04-28T05:09:02.127Z,10.55
2023-04-28T05:11:31.767Z,10.68
2023-04-28T05:14:00.056Z,10.78
2023-04-28T05:16:28.375Z,10.90
2023-04-28T05:18:56.973Z,10.91
2023-04-28T05:21:25.496Z,10.87
2023-04-28T05:23:54.114Z,10.98
2023-04-28T05:26:22.789Z,11.19
2023-04-28T05:28:52.801Z,11.26
2023-04-28T05:31:21.154Z,11.26
2023-04-28T05:33:49.350Z,11.29
2023-04-28T05:36:18.093Z,11.33
2023-04-28T05:38:46.499Z,11.38
2023-04-28T05:41:14.690Z,11.47
2023-04-28T05:43:43.050Z,11.59
2023-04-28T05:46:28.404Z,11.73
2023-04-28T05:48:58.250Z,11.81
2023-04-28T05:51:27.415Z,11.71
2023-04-28T05:53:56.760Z,11.84
2023-04-28T05:56:24.898Z,11.73
2023-04-28T05:58:53.407Z,11.87
2023-04-28T06:01:23.860Z,11.91
2023-04-28T06:03:53.913Z,11.89
2023-04-28T06:06:22.758Z,11.98
2023-04-28T06:08:51.195Z,11.97
2023-04-28T06:11:22.340Z,11.95
2023-04-28T06:13:51.299Z,11.97
2023-04-28T06:16:19.745Z,12.06
2023-04-28T06:18:49.892Z,11.90
2023-04-28T06:21:18.756Z,11.94
2023-04-28T06:23:47.259Z,11.95
2023-04-28T06:26:17.979Z,11.94
2023-04-28T06:28:46.566Z,12.06
2023-04-28T06:31:14.752Z,12.06
2023-04-28T06:33:42.876Z,12.36
2023-04-28T06:36:14.240Z,11.75
2023-04-28T06:38:44.014Z,11.95
2023-04-28T06:41:13.013Z,12.15
2023-04-28T06:43:41.549Z,12.31
2023-04-28T06:46:10.928Z,12.40
2023-04-28T06:48:39.271Z,12.61
2023-04-28T06:51:07.671Z,12.81
2023-04-28T06:53:37.276Z,12.95
2023-04-28T06:56:05.885Z,12.80
2023-04-28T06:58:34.207Z,12.74
2023-04-28T07:01:04.088Z,12.78
2023-04-28T07:03:32.586Z,12.60
2023-04-28T07:06:01.133Z,12.87
2023-04-28T07:08:30.897Z,12.88
2023-04-28T07:11:04.745Z,13.05
2023-04-28T07:13:33.523Z,12.86
2023-04-28T07:16:01.910Z,13.09
2023-04-28T07:18:30.022Z,13.25
2023-04-28T07:20:58.392Z,13.35
2023-04-28T07:23:26.763Z,13.44
2023-04-28T07:25:54.884Z,13.57
2023-04-28T07:28:24.519Z,13.49
2023-04-28T07:30:52.787Z,13.60
2023-04-28T07:33:21.036Z,13.11
2023-04-28T07:35:49.662Z,13.12
2023-04-28T07:38:18.643Z,13.07
2023-04-28T07:40:47.125Z,13.14
2023-04-28T07:43:15.397Z,13.38
2023-04-28T07:45:49.053Z,13.18
2023-04-28T07:48:17.627Z,13.61
2023-04-28T07:50:46.754Z,13.74
2023-04-28T07:53:15.079Z,13.37
2023-04-28T07:55:44.839Z,13.51
2023-04-28T07:58:13.300Z,13.41
2023-04-28T08:00:45.974Z,13.31
2023-04-28T08:03:14.682Z,13.48
2023-04-28T08:05:43.043Z,13.33
2023-04-28T08:08:11.658Z,13.65
2023-04-28T08:10:42.211Z,13.89
2023-04-28T08:13:10.364Z,14.01
2023-04-28T08:15:38.622Z,13.97
2023-04-28T08:18:08.934Z,14.61
2023-04-28T08:20:37.204Z,15.64
2023-04-28T08:23:05.395Z,16.17
2023-04-28T08:25:33.899Z,16.39
2023-04-28T08:28:03.711Z,15.79
2023-04-28T08:30:31.936Z,16.14
2023-04-28T08:33:00.218Z,16.61
2023-04-28T08:35:29.745Z,16.03
2023-04-28T08:37:58.552Z,15.19
2023-04-28T08:40:27.109Z,14.84
2023-04-28T08:42:56.991Z,14.84
2023-04-28T08:45:27.241Z,14.99
2023-04-28T08:47:58.006Z,15.25
2023-04-28T08:50:29.956Z,14.53
2023-04-28T08:53:00.385Z,14.54
2023-04-28T08:55:29.360Z,14.85
2023-04-28T08:57:58.138Z,14.27
2023-04-28T09:00:27.108Z,14.54
2023-04-28T09:02:56.502Z,14.75
2023-04-28T09:05:25.960Z,14.61
2023-04-28T09:07:55.805Z,14.55
2023-04-28T09:10:27.660Z,14.48
2023-04-28T09:12:58.947Z,14.47
2023-04-28T09:15:30.607Z,14.59
2023-04-28T09:18:00.596Z,14.68
2023-04-28T09:20:30.574Z,14.87
2023-04-28T09:23:14.884Z,14.74
2023-04-28T09:25:57.670Z,14.84
2023-04-28T09:28:26.223Z,15.21
2023-04-28T09:30:54.498Z,14.71
2023-04-28T09:33:22.883Z,14.48
2023-04-28T09:35:51.835Z,14.48
2023-04-28T09:38:21.668Z,14.50
2023-04-28T09:40:59.285Z,14.29
2023-04-28T09:43:29.549Z,14.53
2023-04-28T09:45:58.919Z,14.48
2023-04-28T09:48:32.272Z,14.20
2023-04-28T09:51:01.521Z,13.92
2023-04-28T09:53:30.870Z,14.08
2023-04-28T09:56:02.685Z,14.20
2023-04-28T09:58:33.023Z,14.22
2023-04-28T10:01:02.604Z,14.14
2023-04-28T10:03:33.049Z,14.04
2023-04-28T10:06:01.549Z,13.69
2023-04-28T10:08:29.921Z,13.99
2023-04-28T10:11:00.558Z,14.04
2023-04-28T10:13:29.458Z,14.16
2023-04-28T10:15:58.673Z,14.08
2023-04-28T10:18:27.543Z,13.89
2023-04-28T10:20:59.835Z,14.16
2023-04-28T10:23:53.184Z,14.32
2023-04-28T10:26:24.555Z,14.13
2023-04-28T10:28:53.387Z,14.15
2023-04-28T10:31:23.224Z,14.31
2023-04-28T10:33:51.886Z,14.68
2023-04-28T10:36:59.750Z,14.27
2023-04-28T10:39:28.595Z,14.36
2023-04-28T10:41:58.332Z,14.32
2023-04-28T10:44:45.246Z,14.05
2023-04-28T10:47:13.635Z,14.07
2023-04-28T10:50:12.680Z,13.99
2023-04-28T10:52:50.290Z,13.88
2023-04-28T10:55:36.690Z,13.89
2023-04-28T10:58:41.781Z,14.46
2023-04-28T11:01:32.267Z,14.36
2023-04-28T11:04:04.848Z,14.30
2023-04-28T11:06:36.217Z,14.45
2023-04-28T11:09:26.609Z,14.45
2023-04-28T11:12:11.411Z,14.29
2023-04-28T11:14:41.271Z,14.20
2023-04-28T11:17:13.793Z,14.10
2023-04-28T11:19:44.033Z,14.19
2023-04-28T11:22:17.969Z,14.27
2023-04-28T11:24:58.483Z,14.10
2023-04-28T11:27:27.218Z,14.12
2023-04-28T11:29:57.119Z,14.20
2023-04-28T11:32:30.282Z,14.22
2023-04-28T11:34:59.754Z,14.64
2023-04-28T11:37:28.189Z,14.37
2023-04-28T11:39:57.683Z,14.36
2023-04-28T11:42:28.316Z,14.37
2023-04-28T11:44:59.278Z,14.09
2023-04-28T11:47:33.091Z,14.22
2023-04-28T11:50:03.473Z,14.57
2023-04-28T11:52:32.083Z,14.64
2023-04-28T11:55:02.663Z,14.73
2023-04-28T11:57:31.035Z,15.15
2023-04-28T12:00:19.951Z,15.54
2023-04-28T12:02:48.870Z,15.40
2023-04-28T12:05:17.653Z,15.65
2023-04-28T12:07:46.975Z,15.79
2023-04-28T12:10:17.370Z,15.47
2023-04-28T12:12:52.075Z,15.15
2023-04-28T12:15:25.857Z,15.38
2023-04-28T12:17:54.306Z,15.63
2023-04-28T12:20:36.829Z,14.90
2023-04-28T12:23:05.487Z,14.57
2023-04-28T12:25:36.204Z,14.43
2023-04-28T12:28:08.016Z,14.47
2023-04-28T12:30:42.105Z,14.53
2023-04-28T12:33:24.977Z,15.22
2023-04-28T12:35:55.363Z,15.20
2023-04-28T12:38:23.870Z,14.91
2023-04-28T12:40:55.451Z,14.77
2023-04-28T12:43:24.954Z,15.01
2023-04-28T12:45:55.833Z,14.95
2023-04-28T12:48:25.600Z,14.90
2023-04-28T12:50:53.994Z,15.09
2023-04-28T12:53:22.381Z,14.53
2023-04-28T12:55:50.861Z,14.48
2023-04-28T12:58:19.312Z,14.80
2023-04-28T13:00:47.868Z,14.65
2023-04-28T13:03:17.663Z,14.36
2023-04-28T13:05:45.840Z,14.80
2023-04-28T13:08:14.615Z,15.27
2023-04-28T13:10:43.059Z,15.02
2023-04-28T13:13:11.658Z,14.65
2023-04-28T13:15:40.481Z,14.67
2023-04-28T13:18:09.121Z,14.59
2023-04-28T13:20:38.793Z,14.37
2023-04-28T13:23:07.006Z,14.42
2023-04-28T13:25:35.688Z,14.60
2023-04-28T13:28:04.168Z,15.01
2023-04-28T13:30:32.470Z,14.78
2023-04-28T13:33:00.863Z,14.92
2023-04-28T13:35:29.139Z,14.74
2023-04-28T13:38:02.143Z,15.05
2023-04-28T13:40:30.275Z,15.31
2023-04-28T13:42:58.957Z,14.97
2023-04-28T13:45:28.529Z,14.87
2023-04-28T13:47:57.122Z,15.10
2023-04-28T13:50:25.877Z,15.34
2023-04-28T13:52:54.392Z,15.67
2023-04-28T13:55:27.829Z,15.49
2023-04-28T13:57:57.417Z,15.19
2023-04-28T14:00:26.397Z,15.13
2023-04-28T14:02:54.685Z,15.02
2023-04-28T14:05:23.424Z,15.32
2023-04-28T14:07:51.993Z,15.41
2023-04-28T14:10:20.267Z,15.06
2023-04-28T14:12:50.674Z,15.16
2023-04-28T14:15:19.133Z,15.43
2023-04-28T14:17:47.773Z,15.55
2023-04-28T14:20:16.239Z,15.25
2023-04-28T14:22:46.910Z,14.91
2023-04-28T14:25:15.172Z,14.41
2023-04-28T14:27:43.640Z,14.71
2023-04-28T14:30:13.692Z,14.87
2023-04-28T14:32:45.342Z,14.49
2023-04-28T14:35:15.685Z,14.58
2023-04-28T14:37:44.730Z,15.21
2023-04-28T14:40:13.442Z,15.29
2023-04-28T14:42:42.035Z,15.35
2023-04-28T14:45:13.286Z,15.33
2023-04-28T14:47:42.405Z,15.37
2023-04-28T14:50:13.195Z,15.49
2023-04-28T14:52:42.674Z,15.61
2023-04-28T14:55:11.797Z,15.05
2023-04-28T14:57:40.496Z,15.03
2023-04-28T15:00:09.902Z,15.36
2023-04-28T15:02:42.893Z,15.42
2023-04-28T15:05:12.815Z,15.19
2023-04-28T15:07:42.256Z,14.83
2023-04-28T15:10:10.751Z,14.83
2023-04-28T15:12:39.076Z,14.57
2023-04-28T15:15:08.534Z,14.83
2023-04-28T15:17:36.725Z,15.19
2023-04-28T15:20:09.417Z,15.39
2023-04-28T15:22:37.728Z,15.44
2023-04-28T15:25:06.903Z,15.52
2023-04-28T15:27:35.182Z,15.44
2023-04-28T15:30:03.450Z,15.28
2023-04-28T15:32:32.728Z,14.46
2023-04-28T15:35:01.811Z,14.38
2023-04-28T15:37:52.249Z,14.42
2023-04-28T15:40:21.791Z,14.66
2023-04-28T15:42:51.896Z,14.97
2023-04-28T15:45:21.340Z,14.78
2023-04-28T15:47:52.394Z,13.73
2023-04-28T15:50:20.859Z,13.56
2023-04-28T15:52:51.404Z,14.09
2023-04-28T15:55:24.153Z,14.37
2023-04-28T15:57:53.345Z,14.15
2023-04-28T16:00:22.291Z,14.13
2023-04-28T16:02:50.834Z,14.46
2023-04-28T16:05:27.343Z,14.71
2023-04-28T16:07:57.064Z,14.72
2023-04-28T16:10:25.768Z,14.80
2023-04-28T16:12:54.070Z,14.71
2023-04-28T16:15:23.427Z,14.77
2023-04-28T16:17:52.727Z,14.22
2023-04-28T16:20:21.050Z,14.18
2023-04-28T16:22:49.368Z,13.50
2023-04-28T16:25:19.276Z,13.95
2023-04-28T16:27:47.390Z,13.92
2023-04-28T16:30:15.637Z,14.09
2023-04-28T16:32:44.079Z,13.99
2023-04-28T16:35:15.206Z,14.40
2023-04-28T16:37:44.630Z,14.46
2023-04-28T16:40:13.880Z,14.44
2023-04-28T16:42:44.978Z,14.56
2023-04-28T16:45:14.122Z,14.44
2023-04-28T16:47:43.834Z,14.34
2023-04-28T16:50:14.955Z,14.58
2023-04-28T16:52:43.278Z,14.26
2023-04-28T16:55:11.730Z,14.38
2023-04-28T16:57:40.245Z,14.31
2023-04-28T17:00:11.487Z,14.27
2023-04-28T17:02:40.167Z,14.13
2023-04-28T17:05:10.978Z,14.22
2023-04-28T17:07:39.601Z,14.05
2023-04-28T17:10:08.902Z,13.95
2023-04-28T17:12:37.572Z,14.11
2023-04-28T17:15:06.728Z,13.88
2023-04-28T17:17:36.481Z,14.02
2023-04-28T17:20:06.301Z,13.89
2023-04-28T17:22:34.871Z,14.02
2023-04-28T17:25:03.138Z,13.99
2023-04-28T17:27:31.737Z,14.01
2023-04-28T17:30:00.213Z,14.02
2023-04-28T17:32:28.865Z,13.99
2023-04-28T17:34:58.772Z,14.06
2023-04-28T17:37:26.941Z,13.96
2023-04-28T17:39:55.903Z,13.71
2023-04-28T17:42:24.780Z,13.58
2023-04-28T17:44:53.454Z,13.57
2023-04-28T17:47:21.747Z,13.93
2023-04-28T17:49:50.131Z,14.02
2023-04-28T17:52:20.795Z,14.07
2023-04-28T17:54:49.317Z,14.06
2023-04-28T17:57:17.988Z,13.91
2023-04-28T17:59:47.185Z,13.95
2023-04-28T18:02:17.279Z,13.93
2023-04-28T18:04:46.289Z,13.98
2023-04-28T18:07:14.628Z,14.03
2023-04-28T18:09:44.252Z,14.19
2023-04-28T18:12:21.277Z,13.08
2023-04-28T18:14:50.494Z,13.89
2023-04-28T18:17:19.017Z,13.89
2023-04-28T18:19:51.634Z,13.78
2023-04-28T18:22:19.904Z,13.90
2023-04-28T18:24:50.000Z,13.65
2023-04-28T18:27:18.507Z,13.69
2023-04-28T18:29:47.106Z,13.49
2023-04-28T18:32:15.663Z,13.39
2023-04-28T18:34:44.741Z,13.43
2023-04-28T18:37:15.942Z,13.48
2023-04-28T18:39:44.822Z,13.75
2023-04-28T18:42:15.125Z,13.29
2023-04-28T18:44:43.466Z,13.67
2023-04-28T18:47:12.854Z,13.62
2023-04-28T18:49:41.371Z,13.73
2023-04-28T18:52:09.828Z,13.64
2023-04-28T18:54:38.377Z,13.36
2023-04-28T18:57:06.740Z,13.37
2023-04-28T18:59:37.084Z,13.37
2023-04-28T19:02:05.735Z,13.44
2023-04-28T19:04:34.487Z,13.53
2023-04-28T19:07:03.011Z,13.62
2023-04-28T19:09:32.404Z,13.34
2023-04-28T19:12:00.942Z,13.44
2023-04-28T19:14:29.238Z,13.30
2023-04-28T19:17:00.027Z,13.34
2023-04-28T19:19:29.901Z,13.40
2023-04-28T19:21:58.432Z,13.44
2023-04-28T19:24:29.406Z,13.33
2023-04-28T19:27:01.651Z,13.56
2023-04-28T19:29:29.797Z,13.48
2023-04-28T19:31:59.918Z,13.49
2023-04-28T19:34:28.693Z,13.58
2023-04-28T19:36:59.044Z,13.54
2023-04-28T19:39:29.285Z,13.41
2023-04-28T19:41:58.733Z,13.35
2023-04-28T19:44:27.983Z,13.38
2023-04-28T19:46:56.772Z,13.34
2023-04-28T19:49:27.065Z,13.32
2023-04-28T19:51:55.453Z,13.47
2023-04-28T19:54:23.923Z,13.21
2023-04-28T19:56:52.361Z,13.19
2023-04-28T19:59:20.648Z,13.16
2023-04-28T20:01:50.554Z,13.08
2023-04-28T20:04:19.206Z,12.97
2023-04-28T20:06:49.349Z,13.08
2023-04-28T20:09:18.147Z,12.89
2023-04-28T20:11:46.391Z,12.86
2023-04-28T20:14:14.738Z,12.78
2023-04-28T20:16:43.583Z,12.77
2023-04-28T20:19:11.717Z,12.78
2023-04-28T20:21:41.967Z,12.97
2023-04-28T20:24:12.431Z,13.07
2023-04-28T20:26:41.109Z,13.04
2023-04-28T20:29:10.038Z,12.83
2023-04-28T20:31:38.599Z,12.84
2023-04-28T20:34:09.601Z,13.09
2023-04-28T20:36:39.948Z,12.98
2023-04-28T20:39:11.216Z,13.18
2023-04-28T20:41:41.322Z,13.40
2023-04-28T20:44:10.022Z,13.02
2023-04-28T20:46:38.573Z,12.99
2023-04-28T20:49:06.908Z,13.26
2023-04-28T20:51:36.188Z,13.33
2023-04-28T20:54:05.202Z,13.38
2023-04-28T20:56:33.494Z,13.13
2023-04-28T20:59:03.135Z,13.02
2023-04-28T21:01:35.398Z,13.07
2023-04-28T21:04:03.739Z,13.13
2023-04-28T21:06:32.287Z,12.92
2023-04-28T21:09:01.784Z,12.89
2023-04-28T21:11:30.001Z,13.05
2023-04-28T21:13:58.630Z,13.26
2023-04-28T21:16:28.745Z,13.26
2023-04-28T21:18:57.662Z,13.21
2023-04-28T21:21:25.851Z,13.14
2023-04-28T21:23:55.630Z,13.10
2023-04-28T21:26:24.644Z,13.21
2023-04-28T21:28:53.215Z,13.26
2023-04-28T21:31:22.097Z,13.12
2023-04-28T21:33:51.835Z,13.11
2023-04-28T21:36:20.388Z,13.02
2023-04-28T21:38:49.353Z,13.20
2023-04-28T21:41:17.711Z,13.20
2023-04-28T21:43:46.058Z,13.25
2023-04-28T21:46:14.579Z,13.30
2023-04-28T21:48:43.133Z,13.11
2023-04-28T21:51:13.079Z,13.08
2023-04-28T21:53:42.279Z,13.08
2023-04-28T21:56:10.393Z,12.96
2023-04-28T21:58:38.604Z,12.90
2023-04-28T22:01:08.044Z,12.91
2023-04-28T22:03:37.302Z,12.89
2023-04-28T22:06:05.797Z,12.92
2023-04-28T22:08:36.158Z,13.00
2023-04-28T22:11:04.819Z,12.95
2023-04-28T22:13:33.293Z,12.88
2023-04-28T22:16:01.946Z,12.82
2023-04-28T22:18:30.633Z,12.80
2023-04-28T22:20:59.294Z,12.77
2023-04-28T22:23:28.487Z,12.78
2023-04-28T22:26:00.433Z,12.82
2023-04-28T22:28:28.769Z,12.81
2023-04-28T22:30:57.398Z,12.97
2023-04-28T22:33:25.909Z,13.00
2023-04-28T22:35:54.049Z,13.12
2023-04-28T22:38:22.397Z,13.13
2023-04-28T22:40:50.442Z,12.74
2023-04-28T22:43:20.281Z,12.74
2023-04-28T22:45:48.709Z,12.84
2023-04-28T22:48:17.020Z,12.72
2023-04-28T22:50:47.865Z,12.83
2023-04-28T22:53:16.099Z,12.73
2023-04-28T22:55:44.295Z,12.60
2023-04-28T22:58:12.536Z,12.72
2023-04-28T23:00:43.148Z,12.66
2023-04-28T23:03:11.430Z,12.59
2023-04-28T23:05:40.492Z,12.53
2023-04-28T23:08:09.029Z,12.46
2023-04-28T23:10:37.272Z,12.41
2023-04-28T23:13:06.229Z,12.45
2023-04-28T23:15:34.632Z,12.69
2023-04-28T23:18:04.624Z,12.60
2023-04-28T23:20:35.254Z,12.60
2023-04-28T23:23:03.357Z,12.60
2023-04-28T23:25:32.579Z,12.60
2023-04-28T23:28:01.268Z,12.62
2023-04-28T23:30:30.322Z,12.45
2023-04-28T23:32:58.683Z,12.43
2023-04-28T23:35:28.584Z,12.36
2023-04-28T23:37:56.835Z,12.30
2023-04-28T23:40:25.174Z,12.34
2023-04-28T23:42:53.627Z,12.31
2023-04-28T23:45:22.056Z,12.37
2023-04-28T23:47:50.345Z,12.33
2023-04-28T23:50:19.060Z,12.27
2023-04-28T23:52:48.699Z,12.27
2023-04-28T23:55:16.823Z,12.20
2023-04-28T23:57:45.359Z,12.19
